sensor_id;sensor_type;location;lat;lon;timestamp;temperature;humidity
49829;DHT22;35723;51.194;5.112;2022-12-07T00:00:40;7.80;99.90
49829;DHT22;35723;51.194;5.112;2022-12-07T00:03:06;7.80;99.90
49829;DHT22;35723;51.194;5.112;2022-12-07T00:05:32;7.80;99.90
49829;DHT22;35723;51.194;5.112;2022-12-07T00:07:57;7.70;99.90
49829;DHT22;35723;51.194;5.112;2022-12-07T00:10:23;7.60;99.90
49829;DHT22;35723;51.194;5.112;2022-12-07T00:12:48;7.70;99.90
49829;DHT22;35723;51.194;5.112;2022-12-07T00:15:15;7.70;99.90
49829;DHT22;35723;51.194;5.112;2022-12-07T00:17:41;7.80;99.90
49829;DHT22;35723;51.194;5.112;2022-12-07T00:20:07;7.70;99.90
49829;DHT22;35723;51.194;5.112;2022-12-07T00:22:32;7.60;99.90
49829;DHT22;35723;51.194;5.112;2022-12-07T00:24:58;7.50;99.90
49829;DHT22;35723;51.194;5.112;2022-12-07T00:27:24;7.60;99.90
49829;DHT22;35723;51.194;5.112;2022-12-07T00:29:49;7.50;99.90
49829;DHT22;35723;51.194;5.112;2022-12-07T00:32:15;7.50;99.90
49829;DHT22;35723;51.194;5.112;2022-12-07T00:34:40;7.60;99.90
49829;DHT22;35723;51.194;5.112;2022-12-07T00:37:06;7.60;99.90
49829;DHT22;35723;51.194;5.112;2022-12-07T00:39:31;7.60;99.90
49829;DHT22;35723;51.194;5.112;2022-12-07T00:41:57;7.70;99.90
49829;DHT22;35723;51.194;5.112;2022-12-07T00:44:23;7.60;99.90
49829;DHT22;35723;51.194;5.112;2022-12-07T00:46:48;7.60;99.90
49829;DHT22;35723;51.194;5.112;2022-12-07T00:49:14;7.60;99.90
49829;DHT22;35723;51.194;5.112;2022-12-07T00:51:39;7.60;99.90
49829;DHT22;35723;51.194;5.112;2022-12-07T00:54:05;7.60;99.90
49829;DHT22;35723;51.194;5.112;2022-12-07T00:56:31;7.60;99.90
49829;DHT22;35723;51.194;5.112;2022-12-07T00:58:59;7.60;99.90
49829;DHT22;35723;51.194;5.112;2022-12-07T01:01:27;7.60;99.90
49829;DHT22;35723;51.194;5.112;2022-12-07T01:03:54;7.50;99.90
49829;DHT22;35723;51.194;5.112;2022-12-07T01:06:21;7.60;99.90
49829;DHT22;35723;51.194;5.112;2022-12-07T01:08:47;7.60;99.90
49829;DHT22;35723;51.194;5.112;2022-12-07T01:11:17;7.60;99.90
49829;DHT22;35723;51.194;5.112;2022-12-07T01:13:44;7.60;99.90
49829;DHT22;35723;51.194;5.112;2022-12-07T01:16:13;7.60;99.90
49829;DHT22;35723;51.194;5.112;2022-12-07T01:18:39;7.60;99.90
49829;DHT22;35723;51.194;5.112;2022-12-07T01:21:09;7.60;99.90
49829;DHT22;35723;51.194;5.112;2022-12-07T01:23:35;7.50;99.90
49829;DHT22;35723;51.194;5.112;2022-12-07T01:26:04;7.50;99.90
49829;DHT22;35723;51.194;5.112;2022-12-07T01:28:30;7.60;99.90
49829;DHT22;35723;51.194;5.112;2022-12-07T01:31:01;7.60;99.90
49829;DHT22;35723;51.194;5.112;2022-12-07T01:33:35;7.60;99.90
49829;DHT22;35723;51.194;5.112;2022-12-07T01:36:20;7.60;99.90
49829;DHT22;35723;51.194;5.112;2022-12-07T01:38:48;7.60;99.90
49829;DHT22;35723;51.194;5.112;2022-12-07T01:41:15;7.60;99.90
49829;DHT22;35723;51.194;5.112;2022-12-07T01:46:34;7.70;99.90
49829;DHT22;35723;51.194;5.112;2022-12-07T01:48:59;7.60;99.90
49829;DHT22;35723;51.194;5.112;2022-12-07T01:51:26;7.60;99.90
49829;DHT22;35723;51.194;5.112;2022-12-07T01:53:52;7.60;99.90
49829;DHT22;35723;51.194;5.112;2022-12-07T01:56:21;7.70;99.90
49829;DHT22;35723;51.194;5.112;2022-12-07T01:58:49;7.70;99.90
49829;DHT22;35723;51.194;5.112;2022-12-07T02:01:14;7.70;99.90
49829;DHT22;35723;51.194;5.112;2022-12-07T02:03:42;7.60;99.90
49829;DHT22;35723;51.194;5.112;2022-12-07T02:06:10;7.60;99.90
49829;DHT22;35723;51.194;5.112;2022-12-07T02:08:37;7.70;99.90
49829;DHT22;35723;51.194;5.112;2022-12-07T02:11:04;7.60;99.90
49829;DHT22;35723;51.194;5.112;2022-12-07T02:13:34;7.60;99.90
49829;DHT22;35723;51.194;5.112;2022-12-07T02:16:28;7.60;99.90
49829;DHT22;35723;51.194;5.112;2022-12-07T02:25:17;7.70;99.90
49829;DHT22;35723;51.194;5.112;2022-12-07T02:27:52;7.60;99.90
49829;DHT22;35723;51.194;5.112;2022-12-07T02:30:23;7.80;99.90
49829;DHT22;35723;51.194;5.112;2022-12-07T02:32:57;7.70;99.90
49829;DHT22;35723;51.194;5.112;2022-12-07T02:38:20;7.70;99.90
49829;DHT22;35723;51.194;5.112;2022-12-07T02:40:57;7.70;99.90
49829;DHT22;35723;51.194;5.112;2022-12-07T02:43:28;7.70;99.90
49829;DHT22;35723;51.194;5.112;2022-12-07T02:46:01;7.90;99.90
49829;DHT22;35723;51.194;5.112;2022-12-07T02:48:28;7.60;99.90
49829;DHT22;35723;51.194;5.112;2022-12-07T02:50:55;7.60;99.90
49829;DHT22;35723;51.194;5.112;2022-12-07T02:53:36;7.70;99.90
49829;DHT22;35723;51.194;5.112;2022-12-07T03:06:48;7.70;99.90
49829;DHT22;35723;51.194;5.112;2022-12-07T03:09:27;7.70;99.90
49829;DHT22;35723;51.194;5.112;2022-12-07T03:12:01;7.70;99.90
49829;DHT22;35723;51.194;5.112;2022-12-07T03:14:36;7.70;99.90
49829;DHT22;35723;51.194;5.112;2022-12-07T03:17:19;7.70;99.90
49829;DHT22;35723;51.194;5.112;2022-12-07T03:19:48;7.60;99.90
49829;DHT22;35723;51.194;5.112;2022-12-07T03:22:17;7.60;99.90
49829;DHT22;35723;51.194;5.112;2022-12-07T03:24:55;7.60;99.90
49829;DHT22;35723;51.194;5.112;2022-12-07T03:27:46;7.70;99.90
49829;DHT22;35723;51.194;5.112;2022-12-07T03:30:18;7.70;99.90
49829;DHT22;35723;51.194;5.112;2022-12-07T03:33:17;7.60;99.90
49829;DHT22;35723;51.194;5.112;2022-12-07T03:35:49;7.70;99.90
49829;DHT22;35723;51.194;5.112;2022-12-07T03:38:23;7.60;99.90
49829;DHT22;35723;51.194;5.112;2022-12-07T03:43:24;7.60;99.90
49829;DHT22;35723;51.194;5.112;2022-12-07T03:46:01;7.50;99.90
49829;DHT22;35723;51.194;5.112;2022-12-07T03:48:36;7.60;99.90
49829;DHT22;35723;51.194;5.112;2022-12-07T03:53:52;7.60;99.90
49829;DHT22;35723;51.194;5.112;2022-12-07T03:56:20;7.60;99.90
49829;DHT22;35723;51.194;5.112;2022-12-07T03:58:46;7.60;99.90
49829;DHT22;35723;51.194;5.112;2022-12-07T04:01:12;7.60;99.90
49829;DHT22;35723;51.194;5.112;2022-12-07T04:03:38;7.70;99.90
49829;DHT22;35723;51.194;5.112;2022-12-07T04:06:04;7.50;99.90
49829;DHT22;35723;51.194;5.112;2022-12-07T04:08:30;7.50;99.90
49829;DHT22;35723;51.194;5.112;2022-12-07T04:10:55;7.50;99.90
49829;DHT22;35723;51.194;5.112;2022-12-07T04:13:21;7.50;99.90
49829;DHT22;35723;51.194;5.112;2022-12-07T04:15:47;7.40;99.90
49829;DHT22;35723;51.194;5.112;2022-12-07T04:18:12;7.40;99.90
49829;DHT22;35723;51.194;5.112;2022-12-07T04:20:38;7.40;99.90
49829;DHT22;35723;51.194;5.112;2022-12-07T04:23:03;7.30;99.90
49829;DHT22;35723;51.194;5.112;2022-12-07T04:25:29;7.30;99.90
49829;DHT22;35723;51.194;5.112;2022-12-07T04:27:55;7.40;99.90
49829;DHT22;35723;51.194;5.112;2022-12-07T04:30:20;7.30;99.90
49829;DHT22;35723;51.194;5.112;2022-12-07T04:32:46;7.20;99.90
49829;DHT22;35723;51.194;5.112;2022-12-07T04:35:12;7.20;99.90
49829;DHT22;35723;51.194;5.112;2022-12-07T04:37:37;7.20;99.90
49829;DHT22;35723;51.194;5.112;2022-12-07T04:40:07;7.20;99.90
49829;DHT22;35723;51.194;5.112;2022-12-07T04:42:33;7.30;99.90
49829;DHT22;35723;51.194;5.112;2022-12-07T04:44:58;7.20;99.90
49829;DHT22;35723;51.194;5.112;2022-12-07T04:47:24;7.30;99.90
49829;DHT22;35723;51.194;5.112;2022-12-07T04:49:50;7.20;99.90
49829;DHT22;35723;51.194;5.112;2022-12-07T04:52:15;7.20;99.90
49829;DHT22;35723;51.194;5.112;2022-12-07T04:54:41;7.20;99.90
49829;DHT22;35723;51.194;5.112;2022-12-07T04:57:06;7.10;99.90
49829;DHT22;35723;51.194;5.112;2022-12-07T04:59:32;7.10;99.90
49829;DHT22;35723;51.194;5.112;2022-12-07T05:01:58;7.10;99.90
49829;DHT22;35723;51.194;5.112;2022-12-07T05:04:23;7.10;99.90
49829;DHT22;35723;51.194;5.112;2022-12-07T05:06:49;7.10;99.90
49829;DHT22;35723;51.194;5.112;2022-12-07T05:09:15;7.10;99.90
49829;DHT22;35723;51.194;5.112;2022-12-07T05:11:40;7.20;99.90
49829;DHT22;35723;51.194;5.112;2022-12-07T05:14:19;7.20;99.90
49829;DHT22;35723;51.194;5.112;2022-12-07T05:16:47;7.20;99.90
49829;DHT22;35723;51.194;5.112;2022-12-07T05:19:14;7.10;99.90
49829;DHT22;35723;51.194;5.112;2022-12-07T05:21:40;7.00;99.90
49829;DHT22;35723;51.194;5.112;2022-12-07T05:24:06;6.90;99.90
49829;DHT22;35723;51.194;5.112;2022-12-07T05:26:33;7.00;99.90
49829;DHT22;35723;51.194;5.112;2022-12-07T05:35:10;7.10;99.90
49829;DHT22;35723;51.194;5.112;2022-12-07T05:42:57;7.00;99.90
49829;DHT22;35723;51.194;5.112;2022-12-07T05:52:51;7.00;99.90
49829;DHT22;35723;51.194;5.112;2022-12-07T06:19:26;6.60;99.90
49829;DHT22;35723;51.194;5.112;2022-12-07T06:28:40;6.50;99.90
49829;DHT22;35723;51.194;5.112;2022-12-07T10:04:30;7.60;99.90
49829;DHT22;35723;51.194;5.112;2022-12-07T10:06:56;7.90;99.90
49829;DHT22;35723;51.194;5.112;2022-12-07T10:09:22;8.10;99.90
49829;DHT22;35723;51.194;5.112;2022-12-07T10:12:08;8.10;99.90
49829;DHT22;35723;51.194;5.112;2022-12-07T10:14:38;8.00;99.90
49829;DHT22;35723;51.194;5.112;2022-12-07T10:20:22;8.20;99.90
49829;DHT22;35723;51.194;5.112;2022-12-07T10:22:55;8.20;99.90
49829;DHT22;35723;51.194;5.112;2022-12-07T10:25:22;8.20;99.90
49829;DHT22;35723;51.194;5.112;2022-12-07T10:28:18;8.20;99.90
49829;DHT22;35723;51.194;5.112;2022-12-07T10:30:59;8.30;99.90
49829;DHT22;35723;51.194;5.112;2022-12-07T10:33:36;8.30;99.90
49829;DHT22;35723;51.194;5.112;2022-12-07T10:41:17;8.40;99.90
49829;DHT22;35723;51.194;5.112;2022-12-07T10:43:53;8.30;99.90
49829;DHT22;35723;51.194;5.112;2022-12-07T10:54:02;8.40;99.90
49829;DHT22;35723;51.194;5.112;2022-12-07T10:56:47;8.40;99.90
49829;DHT22;35723;51.194;5.112;2022-12-07T11:01:55;8.40;99.90
49829;DHT22;35723;51.194;5.112;2022-12-07T11:07:53;8.40;99.90
49829;DHT22;35723;51.194;5.112;2022-12-07T11:11:01;8.30;99.90
49829;DHT22;35723;51.194;5.112;2022-12-07T11:16:30;8.30;99.90
49829;DHT22;35723;51.194;5.112;2022-12-07T11:21:58;8.30;99.90
49829;DHT22;35723;51.194;5.112;2022-12-07T11:30:26;8.30;99.90
49829;DHT22;35723;51.194;5.112;2022-12-07T11:38:14;8.10;99.90
49829;DHT22;35723;51.194;5.112;2022-12-07T11:40:43;8.00;99.90
49829;DHT22;35723;51.194;5.112;2022-12-07T11:43:28;8.10;99.90
49829;DHT22;35723;51.194;5.112;2022-12-07T11:46:12;8.10;99.90
49829;DHT22;35723;51.194;5.112;2022-12-07T11:51:36;8.20;99.90
49829;DHT22;35723;51.194;5.112;2022-12-07T11:54:16;8.20;99.90
49829;DHT22;35723;51.194;5.112;2022-12-07T11:56:43;8.20;99.90
49829;DHT22;35723;51.194;5.112;2022-12-07T12:07:19;7.50;99.90
49829;DHT22;35723;51.194;5.112;2022-12-07T12:10:14;7.60;99.90
49829;DHT22;35723;51.194;5.112;2022-12-07T12:12:51;7.60;99.90
49829;DHT22;35723;51.194;5.112;2022-12-07T12:24:14;7.30;99.90
49829;DHT22;35723;51.194;5.112;2022-12-07T12:26:50;7.20;99.90
49829;DHT22;35723;51.194;5.112;2022-12-07T12:29:28;7.20;99.90
49829;DHT22;35723;51.194;5.112;2022-12-07T12:32:08;7.10;99.90
49829;DHT22;35723;51.194;5.112;2022-12-07T12:34:57;7.00;99.90
49829;DHT22;35723;51.194;5.112;2022-12-07T12:42:55;7.10;99.90
49829;DHT22;35723;51.194;5.112;2022-12-07T12:45:28;7.10;99.90
49829;DHT22;35723;51.194;5.112;2022-12-07T12:53:05;7.20;99.90
49829;DHT22;35723;51.194;5.112;2022-12-07T12:55:46;7.30;99.90
49829;DHT22;35723;51.194;5.112;2022-12-07T13:00:48;7.30;99.90
49829;DHT22;35723;51.194;5.112;2022-12-07T13:03:31;7.40;99.90
49829;DHT22;35723;51.194;5.112;2022-12-07T13:06:19;7.40;99.90
49829;DHT22;35723;51.194;5.112;2022-12-07T13:08:45;7.40;99.90
49829;DHT22;35723;51.194;5.112;2022-12-07T13:11:30;7.30;99.90
49829;DHT22;35723;51.194;5.112;2022-12-07T13:17:00;7.40;99.90
49829;DHT22;35723;51.194;5.112;2022-12-07T13:25:36;7.50;99.90
49829;DHT22;35723;51.194;5.112;2022-12-07T13:28:15;7.60;99.90
49829;DHT22;35723;51.194;5.112;2022-12-07T13:31:04;7.60;99.90
49829;DHT22;35723;51.194;5.112;2022-12-07T13:33:35;7.70;99.90
49829;DHT22;35723;51.194;5.112;2022-12-07T13:36:00;7.80;99.90
49829;DHT22;35723;51.194;5.112;2022-12-07T13:38:30;7.90;99.90
49829;DHT22;35723;51.194;5.112;2022-12-07T13:44:12;8.10;99.90
49829;DHT22;35723;51.194;5.112;2022-12-07T13:47:00;8.20;99.90
49829;DHT22;35723;51.194;5.112;2022-12-07T13:49:31;8.30;99.90
49829;DHT22;35723;51.194;5.112;2022-12-07T13:54:48;8.50;99.90
49829;DHT22;35723;51.194;5.112;2022-12-07T13:57:17;8.50;99.90
49829;DHT22;35723;51.194;5.112;2022-12-07T13:59:43;8.30;99.90
49829;DHT22;35723;51.194;5.112;2022-12-07T14:02:29;8.30;99.90
49829;DHT22;35723;51.194;5.112;2022-12-07T14:05:22;8.20;99.90
49829;DHT22;35723;51.194;5.112;2022-12-07T14:10:53;8.30;99.90
49829;DHT22;35723;51.194;5.112;2022-12-07T14:13:44;8.40;99.90
49829;DHT22;35723;51.194;5.112;2022-12-07T14:16:22;8.50;99.90
49829;DHT22;35723;51.194;5.112;2022-12-07T14:18:49;8.50;99.90
49829;DHT22;35723;51.194;5.112;2022-12-07T14:21:17;8.40;99.90
49829;DHT22;35723;51.194;5.112;2022-12-07T14:23:45;8.40;99.90
49829;DHT22;35723;51.194;5.112;2022-12-07T14:26:20;8.40;99.90
49829;DHT22;35723;51.194;5.112;2022-12-07T14:28:47;8.40;99.90
49829;DHT22;35723;51.194;5.112;2022-12-07T14:31:18;8.40;99.90
49829;DHT22;35723;51.194;5.112;2022-12-07T14:33:45;8.50;99.90
49829;DHT22;35723;51.194;5.112;2022-12-07T14:36:14;8.50;99.90
49829;DHT22;35723;51.194;5.112;2022-12-07T14:38:40;8.50;99.90
49829;DHT22;35723;51.194;5.112;2022-12-07T14:41:12;8.40;99.90
49829;DHT22;35723;51.194;5.112;2022-12-07T14:43:58;8.40;99.90
49829;DHT22;35723;51.194;5.112;2022-12-07T14:46:24;8.40;99.90
49829;DHT22;35723;51.194;5.112;2022-12-07T14:48:50;8.40;99.90
49829;DHT22;35723;51.194;5.112;2022-12-07T14:51:16;8.40;99.90
49829;DHT22;35723;51.194;5.112;2022-12-07T14:53:46;8.40;99.90
49829;DHT22;35723;51.194;5.112;2022-12-07T14:56:13;8.40;99.90
49829;DHT22;35723;51.194;5.112;2022-12-07T14:58:40;8.30;99.90
49829;DHT22;35723;51.194;5.112;2022-12-07T15:01:05;8.40;99.90
49829;DHT22;35723;51.194;5.112;2022-12-07T15:03:31;8.40;99.90
49829;DHT22;35723;51.194;5.112;2022-12-07T15:05:57;8.30;99.90
49829;DHT22;35723;51.194;5.112;2022-12-07T15:08:23;8.30;99.90
49829;DHT22;35723;51.194;5.112;2022-12-07T15:10:49;8.20;99.90
49829;DHT22;35723;51.194;5.112;2022-12-07T15:13:14;8.20;99.90
49829;DHT22;35723;51.194;5.112;2022-12-07T15:15:59;8.20;99.90
49829;DHT22;35723;51.194;5.112;2022-12-07T15:18:25;8.20;99.90
49829;DHT22;35723;51.194;5.112;2022-12-07T15:20:51;8.10;99.90
49829;DHT22;35723;51.194;5.112;2022-12-07T15:23:17;8.10;99.90
49829;DHT22;35723;51.194;5.112;2022-12-07T15:25:44;8.20;99.90
49829;DHT22;35723;51.194;5.112;2022-12-07T15:28:11;8.10;99.90
49829;DHT22;35723;51.194;5.112;2022-12-07T15:30:38;8.10;99.90
49829;DHT22;35723;51.194;5.112;2022-12-07T15:33:04;8.10;99.90
49829;DHT22;35723;51.194;5.112;2022-12-07T15:35:29;8.10;99.90
49829;DHT22;35723;51.194;5.112;2022-12-07T15:37:55;8.10;99.90
49829;DHT22;35723;51.194;5.112;2022-12-07T15:40:20;8.00;99.90
49829;DHT22;35723;51.194;5.112;2022-12-07T15:42:46;8.00;99.90
49829;DHT22;35723;51.194;5.112;2022-12-07T15:45:12;8.00;99.90
49829;DHT22;35723;51.194;5.112;2022-12-07T15:47:40;8.00;99.90
49829;DHT22;35723;51.194;5.112;2022-12-07T15:50:09;7.90;99.90
49829;DHT22;35723;51.194;5.112;2022-12-07T15:52:35;7.80;99.90
49829;DHT22;35723;51.194;5.112;2022-12-07T15:55:01;7.80;99.90
49829;DHT22;35723;51.194;5.112;2022-12-07T15:57:29;7.70;99.90
49829;DHT22;35723;51.194;5.112;2022-12-07T15:59:54;7.70;99.90
49829;DHT22;35723;51.194;5.112;2022-12-07T16:02:20;7.70;99.90
49829;DHT22;35723;51.194;5.112;2022-12-07T16:04:47;7.80;99.90
49829;DHT22;35723;51.194;5.112;2022-12-07T16:07:13;7.80;99.90
49829;DHT22;35723;51.194;5.112;2022-12-07T16:09:41;7.70;99.90
49829;DHT22;35723;51.194;5.112;2022-12-07T16:12:07;7.60;99.90
49829;DHT22;35723;51.194;5.112;2022-12-07T16:14:33;7.60;99.90
49829;DHT22;35723;51.194;5.112;2022-12-07T16:16:59;7.70;99.90
49829;DHT22;35723;51.194;5.112;2022-12-07T16:19:25;7.70;99.90
49829;DHT22;35723;51.194;5.112;2022-12-07T16:21:51;7.70;99.90
49829;DHT22;35723;51.194;5.112;2022-12-07T16:24:16;7.70;99.90
49829;DHT22;35723;51.194;5.112;2022-12-07T16:26:43;7.70;99.90
49829;DHT22;35723;51.194;5.112;2022-12-07T16:29:12;7.70;99.90
49829;DHT22;35723;51.194;5.112;2022-12-07T16:31:37;7.70;99.90
49829;DHT22;35723;51.194;5.112;2022-12-07T16:34:03;7.70;99.90
49829;DHT22;35723;51.194;5.112;2022-12-07T16:36:29;7.60;99.90
49829;DHT22;35723;51.194;5.112;2022-12-07T16:38:54;7.60;99.90
49829;DHT22;35723;51.194;5.112;2022-12-07T16:41:20;7.50;99.90
49829;DHT22;35723;51.194;5.112;2022-12-07T16:43:46;7.50;99.90
49829;DHT22;35723;51.194;5.112;2022-12-07T16:46:11;7.60;99.90
49829;DHT22;35723;51.194;5.112;2022-12-07T16:48:39;7.60;99.90
49829;DHT22;35723;51.194;5.112;2022-12-07T16:51:06;7.50;99.90
49829;DHT22;35723;51.194;5.112;2022-12-07T16:53:34;7.50;99.90
49829;DHT22;35723;51.194;5.112;2022-12-07T16:56:00;7.50;99.90
49829;DHT22;35723;51.194;5.112;2022-12-07T16:58:25;7.50;99.90
49829;DHT22;35723;51.194;5.112;2022-12-07T17:00:51;7.40;99.90
49829;DHT22;35723;51.194;5.112;2022-12-07T17:03:16;7.50;99.90
49829;DHT22;35723;51.194;5.112;2022-12-07T17:05:43;7.40;99.90
49829;DHT22;35723;51.194;5.112;2022-12-07T17:08:10;7.50;99.90
49829;DHT22;35723;51.194;5.112;2022-12-07T17:10:39;7.50;99.90
49829;DHT22;35723;51.194;5.112;2022-12-07T17:13:05;7.40;99.90
49829;DHT22;35723;51.194;5.112;2022-12-07T17:16:02;7.50;99.90
49829;DHT22;35723;51.194;5.112;2022-12-07T17:18:30;7.40;99.90
49829;DHT22;35723;51.194;5.112;2022-12-07T17:21:05;7.50;99.90
49829;DHT22;35723;51.194;5.112;2022-12-07T17:23:31;7.50;99.90
49829;DHT22;35723;51.194;5.112;2022-12-07T17:26:11;7.50;99.90
49829;DHT22;35723;51.194;5.112;2022-12-07T17:28:36;7.50;99.90
49829;DHT22;35723;51.194;5.112;2022-12-07T17:31:05;7.50;99.90
49829;DHT22;35723;51.194;5.112;2022-12-07T17:33:32;7.50;99.90
49829;DHT22;35723;51.194;5.112;2022-12-07T17:35:58;7.50;99.90
49829;DHT22;35723;51.194;5.112;2022-12-07T17:38:25;7.40;99.90
49829;DHT22;35723;51.194;5.112;2022-12-07T17:40:50;7.50;99.90
49829;DHT22;35723;51.194;5.112;2022-12-07T17:43:16;7.50;99.90
49829;DHT22;35723;51.194;5.112;2022-12-07T17:45:42;7.50;99.90
49829;DHT22;35723;51.194;5.112;2022-12-07T17:48:07;7.50;99.90
49829;DHT22;35723;51.194;5.112;2022-12-07T17:50:33;7.50;99.90
49829;DHT22;35723;51.194;5.112;2022-12-07T17:56:44;7.50;99.90
49829;DHT22;35723;51.194;5.112;2022-12-07T17:59:10;7.50;99.90
49829;DHT22;35723;51.194;5.112;2022-12-07T18:01:36;7.50;99.90
49829;DHT22;35723;51.194;5.112;2022-12-07T18:04:02;7.50;99.90
49829;DHT22;35723;51.194;5.112;2022-12-07T18:06:28;7.50;99.90
49829;DHT22;35723;51.194;5.112;2022-12-07T18:08:54;7.50;99.90
49829;DHT22;35723;51.194;5.112;2022-12-07T18:11:19;7.40;99.90
49829;DHT22;35723;51.194;5.112;2022-12-07T18:13:45;7.40;99.90
49829;DHT22;35723;51.194;5.112;2022-12-07T18:16:14;7.40;99.90
49829;DHT22;35723;51.194;5.112;2022-12-07T18:18:42;7.30;99.90
49829;DHT22;35723;51.194;5.112;2022-12-07T18:21:11;7.20;99.90
49829;DHT22;35723;51.194;5.112;2022-12-07T18:23:45;7.30;99.90
49829;DHT22;35723;51.194;5.112;2022-12-07T18:26:12;7.40;99.90
49829;DHT22;35723;51.194;5.112;2022-12-07T18:28:41;7.40;99.90
49829;DHT22;35723;51.194;5.112;2022-12-07T18:31:07;7.30;99.90
49829;DHT22;35723;51.194;5.112;2022-12-07T18:33:33;7.20;99.90
49829;DHT22;35723;51.194;5.112;2022-12-07T18:35:59;7.30;99.90
49829;DHT22;35723;51.194;5.112;2022-12-07T18:38:26;7.30;99.90
49829;DHT22;35723;51.194;5.112;2022-12-07T18:40:53;7.30;99.90
49829;DHT22;35723;51.194;5.112;2022-12-07T18:43:19;7.30;99.90
49829;DHT22;35723;51.194;5.112;2022-12-07T18:45:44;7.30;99.90
49829;DHT22;35723;51.194;5.112;2022-12-07T18:48:15;7.20;99.90
49829;DHT22;35723;51.194;5.112;2022-12-07T18:50:42;7.30;99.90
49829;DHT22;35723;51.194;5.112;2022-12-07T18:53:08;7.30;99.90
49829;DHT22;35723;51.194;5.112;2022-12-07T18:55:35;7.40;99.90
49829;DHT22;35723;51.194;5.112;2022-12-07T18:58:01;7.40;99.90
49829;DHT22;35723;51.194;5.112;2022-12-07T19:00:28;7.40;99.90
49829;DHT22;35723;51.194;5.112;2022-12-07T19:02:55;7.30;99.90
49829;DHT22;35723;51.194;5.112;2022-12-07T19:05:21;7.40;99.90
49829;DHT22;35723;51.194;5.112;2022-12-07T19:07:48;7.50;99.90
49829;DHT22;35723;51.194;5.112;2022-12-07T19:10:15;7.40;99.90
49829;DHT22;35723;51.194;5.112;2022-12-07T19:12:40;7.30;99.90
49829;DHT22;35723;51.194;5.112;2022-12-07T19:15:07;7.30;99.90
49829;DHT22;35723;51.194;5.112;2022-12-07T19:17:34;7.30;99.90
49829;DHT22;35723;51.194;5.112;2022-12-07T19:20:00;7.40;99.90
49829;DHT22;35723;51.194;5.112;2022-12-07T19:22:26;7.40;99.90
49829;DHT22;35723;51.194;5.112;2022-12-07T19:24:53;7.50;99.90
49829;DHT22;35723;51.194;5.112;2022-12-07T19:27:19;7.50;99.90
49829;DHT22;35723;51.194;5.112;2022-12-07T19:29:45;7.50;99.90
49829;DHT22;35723;51.194;5.112;2022-12-07T19:32:12;7.40;99.90
49829;DHT22;35723;51.194;5.112;2022-12-07T19:34:39;7.50;99.90
49829;DHT22;35723;51.194;5.112;2022-12-07T19:37:06;7.40;99.90
49829;DHT22;35723;51.194;5.112;2022-12-07T19:39:32;7.40;99.90
49829;DHT22;35723;51.194;5.112;2022-12-07T19:41:59;7.40;99.90
49829;DHT22;35723;51.194;5.112;2022-12-07T19:44:26;7.40;99.90
49829;DHT22;35723;51.194;5.112;2022-12-07T19:46:54;7.40;99.90
49829;DHT22;35723;51.194;5.112;2022-12-07T19:49:21;7.40;99.90
49829;DHT22;35723;51.194;5.112;2022-12-07T19:51:49;7.50;99.90
49829;DHT22;35723;51.194;5.112;2022-12-07T19:54:17;7.40;99.90
49829;DHT22;35723;51.194;5.112;2022-12-07T19:56:44;7.40;99.90
49829;DHT22;35723;51.194;5.112;2022-12-07T19:59:11;7.30;99.90
49829;DHT22;35723;51.194;5.112;2022-12-07T20:01:38;7.30;99.90
49829;DHT22;35723;51.194;5.112;2022-12-07T20:04:06;7.30;99.90
49829;DHT22;35723;51.194;5.112;2022-12-07T20:06:32;7.20;99.90
49829;DHT22;35723;51.194;5.112;2022-12-07T20:08:58;7.20;99.90
49829;DHT22;35723;51.194;5.112;2022-12-07T20:11:23;7.30;99.90
49829;DHT22;35723;51.194;5.112;2022-12-07T20:27:53;7.30;99.90
49829;DHT22;35723;51.194;5.112;2022-12-07T20:30:18;7.30;99.90
49829;DHT22;35723;51.194;5.112;2022-12-07T20:32:44;7.30;99.90
49829;DHT22;35723;51.194;5.112;2022-12-07T20:35:09;7.30;99.90
49829;DHT22;35723;51.194;5.112;2022-12-07T20:37:35;7.30;99.90
49829;DHT22;35723;51.194;5.112;2022-12-07T20:40:01;7.30;99.90
49829;DHT22;35723;51.194;5.112;2022-12-07T20:42:26;7.20;99.90
49829;DHT22;35723;51.194;5.112;2022-12-07T20:45:11;7.30;99.90
49829;DHT22;35723;51.194;5.112;2022-12-07T20:47:36;7.30;99.90
49829;DHT22;35723;51.194;5.112;2022-12-07T20:50:03;7.30;99.90
49829;DHT22;35723;51.194;5.112;2022-12-07T20:52:29;7.30;99.90
49829;DHT22;35723;51.194;5.112;2022-12-07T20:54:55;7.20;99.90
49829;DHT22;35723;51.194;5.112;2022-12-07T20:57:21;7.30;99.90
49829;DHT22;35723;51.194;5.112;2022-12-07T20:59:46;7.30;99.90
49829;DHT22;35723;51.194;5.112;2022-12-07T21:02:12;7.30;99.90
49829;DHT22;35723;51.194;5.112;2022-12-07T21:04:39;7.30;99.90
49829;DHT22;35723;51.194;5.112;2022-12-07T21:07:04;7.30;99.90
49829;DHT22;35723;51.194;5.112;2022-12-07T21:09:30;7.40;99.90
49829;DHT22;35723;51.194;5.112;2022-12-07T21:11:56;7.50;99.90
49829;DHT22;35723;51.194;5.112;2022-12-07T21:14:22;7.40;99.90
49829;DHT22;35723;51.194;5.112;2022-12-07T21:16:48;7.40;99.90
49829;DHT22;35723;51.194;5.112;2022-12-07T21:19:14;7.40;99.90
49829;DHT22;35723;51.194;5.112;2022-12-07T21:21:39;7.40;99.90
49829;DHT22;35723;51.194;5.112;2022-12-07T21:24:05;7.30;99.90
49829;DHT22;35723;51.194;5.112;2022-12-07T21:26:34;7.20;99.90
49829;DHT22;35723;51.194;5.112;2022-12-07T21:29:01;7.30;99.90
49829;DHT22;35723;51.194;5.112;2022-12-07T21:31:28;7.20;99.90
49829;DHT22;35723;51.194;5.112;2022-12-07T21:33:53;7.10;99.90
49829;DHT22;35723;51.194;5.112;2022-12-07T21:36:22;7.20;99.90
49829;DHT22;35723;51.194;5.112;2022-12-07T21:38:48;7.10;99.90
49829;DHT22;35723;51.194;5.112;2022-12-07T21:41:18;7.20;99.90
49829;DHT22;35723;51.194;5.112;2022-12-07T21:43:44;7.30;99.90
49829;DHT22;35723;51.194;5.112;2022-12-07T21:46:12;7.30;99.90
49829;DHT22;35723;51.194;5.112;2022-12-07T21:48:38;7.20;99.90
49829;DHT22;35723;51.194;5.112;2022-12-07T21:51:09;7.30;99.90
49829;DHT22;35723;51.194;5.112;2022-12-07T21:53:35;7.30;99.90
49829;DHT22;35723;51.194;5.112;2022-12-07T21:56:01;7.20;99.90
49829;DHT22;35723;51.194;5.112;2022-12-07T21:58:30;7.10;99.90
49829;DHT22;35723;51.194;5.112;2022-12-07T22:00:57;7.30;99.90
49829;DHT22;35723;51.194;5.112;2022-12-07T22:03:23;7.30;99.90
49829;DHT22;35723;51.194;5.112;2022-12-07T22:05:49;7.40;99.90
49829;DHT22;35723;51.194;5.112;2022-12-07T22:08:16;7.40;99.90
49829;DHT22;35723;51.194;5.112;2022-12-07T22:10:42;7.50;99.90
49829;DHT22;35723;51.194;5.112;2022-12-07T22:13:08;7.40;99.90
49829;DHT22;35723;51.194;5.112;2022-12-07T22:15:34;7.40;99.90
49829;DHT22;35723;51.194;5.112;2022-12-07T22:17:59;7.50;99.90
49829;DHT22;35723;51.194;5.112;2022-12-07T22:20:25;7.50;99.90
49829;DHT22;35723;51.194;5.112;2022-12-07T22:22:51;7.40;99.90
49829;DHT22;35723;51.194;5.112;2022-12-07T22:25:16;7.50;99.90
49829;DHT22;35723;51.194;5.112;2022-12-07T22:27:42;7.40;99.90
49829;DHT22;35723;51.194;5.112;2022-12-07T22:30:09;7.20;99.90
49829;DHT22;35723;51.194;5.112;2022-12-07T22:32:36;7.20;99.90
49829;DHT22;35723;51.194;5.112;2022-12-07T22:35:03;7.20;99.90